Terminal Aerodrome Forecast
Issued by NWS

Home | Current Version | Previous Version | Text Only | Print | Product List | Glossary On
Versions: 1 2 3 4 5 6 7 8 9 10 11 12 13 14 15 16
031
FTUS43 KICT 201045 AAA
TAFCNU
TAF AMD
KCNU 201045Z 2011/2106 36010KT 6SM -RA SCT003 BKN015 OVC035
      TEMPO 2011/2014 BKN003 OVC015
     FM201400 35014KT P6SM SCT025 BKN100=

USA.gov is the U.S. government's official web portal to all federal, state and local government web resources and services.